Terminal Aerodrome Forecast
Issued by NWS

Home | Current Version | Previous Version | Text Only | Print | Product List | Glossary On
Versions: 1 2 3 4 5 6 7 8 9 10 11 12 13 14 15 16 17 18 19 20 21 22 23 24 25 26
000
FTUS41 KILN 301100
TAFLUK
TAF
KLUK 301134Z 3012/3112 33014G20KT P6SM VCSH SCT018 OVC050
      TEMPO 3012/3013 5SM -SN BR BKN018
     FM301300 33014G20KT P6SM BKN060
     FM301600 34010KT P6SM OVC028
     FM310100 00000KT P6SM BKN028
     FM310400 00000KT P6SM SKC=

USA.gov is the U.S. government's official web portal to all federal, state and local government web resources and services.